Time;durP1;ratioP1;P1;durP2;ratioP2;P2;SDS_P1;SDS_P2;PMS_P1;PMS_P2;Temp;Humidity;BMP_temperature;BMP_pressure;BME280_temperature;BME280_humidity;BME280_pressure;Samples;Min_cycle;Max_cycle;Signal;HPM_P1;HPM_P2
2022/05/21 00:01:35;;;;;;;12.13;4.45;;;;;;;;;;4993227;28;20120;-80
2022/05/21 00:04:01;;;;;;;12.32;4.60;;;;;;;;;;4989888;28;20069;-80
2022/05/21 00:06:27;;;;;;;11.38;4.03;;;;;;;;;;4974240;28;21253;-80
2022/05/21 00:08:53;;;;;;;11.68;3.80;;;;;;;;;;4986440;28;20053;-80
2022/05/21 00:11:19;;;;;;;7.22;3.70;;;;;;;;;;4986195;28;20073;-80
2022/05/21 00:13:47;;;;;;;9.75;3.45;;;;;;;;;;5000342;28;20510;-79
2022/05/21 00:16:13;;;;;;;8.60;3.85;;;;;;;;;;4996784;28;20088;-80
2022/05/21 00:18:39;;;;;;;9.68;3.50;;;;;;;;;;4985841;28;20149;-80
2022/05/21 00:21:08;;;;;;;9.60;3.83;;;;;;;;;;4986067;28;20041;-80
2022/05/21 00:23:35;;;;;;;9.13;3.30;;;;;;;;;;4991513;28;20051;-79
2022/05/21 00:26:01;;;;;;;10.80;3.15;;;;;;;;;;4990363;28;20053;-81
2022/05/21 00:28:27;;;;;;;13.25;4.15;;;;;;;;;;4985488;28;20066;-81
2022/05/21 00:30:54;;;;;;;15.10;4.38;;;;;;;;;;5022468;28;20050;-80
2022/05/21 00:33:20;;;;;;;11.15;3.58;;;;;;;;;;4987660;28;20050;-82
2022/05/21 00:35:49;;;;;;;10.18;4.00;;;;;;;;;;4989843;28;20054;-80
2022/05/21 00:38:15;;;;;;;14.20;4.05;;;;;;;;;;4996668;28;20084;-80
2022/05/21 00:40:42;;;;;;;13.90;4.25;;;;;;;;;;4988730;28;20050;-80
2022/05/21 00:43:28;;;;;;;10.07;3.85;;;;;;;;;;4989102;28;20042;-80
2022/05/21 00:45:54;;;;;;;14.48;4.70;;;;;;;;;;4991044;28;20110;-79
2022/05/21 00:48:20;;;;;;;14.23;4.30;;;;;;;;;;4987834;28;20044;-81
2022/05/21 00:50:46;;;;;;;12.90;4.43;;;;;;;;;;4983993;28;20452;-80
2022/05/21 00:53:12;;;;;;;15.65;4.20;;;;;;;;;;4983166;28;20870;-80
2022/05/21 00:55:38;;;;;;;17.60;4.70;;;;;;;;;;4997264;28;20038;-80
2022/05/21 01:00:55;;;;;;;12.48;4.22;;;;;;;;;;4981147;28;20066;-81
2022/05/21 01:03:21;;;;;;;18.83;4.13;;;;;;;;;;4991473;28;20474;-81
2022/05/21 01:05:47;;;;;;;9.75;4.07;;;;;;;;;;5002760;28;20081;-80
2022/05/21 01:08:14;;;;;;;13.52;4.07;;;;;;;;;;4992851;28;20054;-80
2022/05/21 01:10:44;;;;;;;14.18;4.30;;;;;;;;;;4993352;28;20058;-80
2022/05/21 01:13:15;;;;;;;19.77;4.63;;;;;;;;;;4988159;28;20038;-80
2022/05/21 01:15:42;;;;;;;12.30;4.55;;;;;;;;;;4988538;28;20052;-81
2022/05/21 01:18:14;;;;;;;;;;;;;;;;;;4996147;28;20510;-80
2022/05/21 01:20:43;;;;;;;12.80;4.47;;;;;;;;;;4977905;28;19932;-80
2022/05/21 01:23:09;;;;;;;14.27;3.95;;;;;;;;;;4996916;28;20107;-79
2022/05/21 01:25:37;;;;;;;13.88;3.90;;;;;;;;;;4994737;28;20510;-80
2022/05/21 01:28:04;;;;;;;8.55;3.53;;;;;;;;;;5023831;28;20096;-80
2022/05/21 01:30:30;;;;;;;11.45;3.97;;;;;;;;;;4996410;28;20051;-80
2022/05/21 01:32:56;;;;;;;14.35;5.30;;;;;;;;;;5002410;28;20061;-80
2022/05/21 01:35:22;;;;;;;14.73;4.68;;;;;;;;;;4988368;28;20089;-81
2022/05/21 01:37:48;;;;;;;12.13;4.18;;;;;;;;;;4999988;28;20474;-80
2022/05/21 01:40:23;;;;;;;12.85;4.38;;;;;;;;;;4997700;28;20049;-80
2022/05/21 01:45:35;;;;;;;11.18;4.25;;;;;;;;;;4993611;28;20479;-80
2022/05/21 01:48:02;;;;;;;9.45;3.85;;;;;;;;;;4991938;28;20553;-82
2022/05/21 01:50:29;;;;;;;14.25;4.10;;;;;;;;;;4984292;28;20050;-82
2022/05/21 01:52:55;;;;;;;14.27;3.97;;;;;;;;;;4983596;28;20499;-81
2022/05/21 01:55:21;;;;;;;12.32;3.75;;;;;;;;;;4992497;28;20092;-80
2022/05/21 01:57:47;;;;;;;15.32;4.32;;;;;;;;;;5005620;28;20057;-80
2022/05/21 02:00:14;;;;;;;15.15;4.18;;;;;;;;;;4989173;28;20069;-82
2022/05/21 02:02:40;;;;;;;15.57;4.50;;;;;;;;;;4998787;28;20034;-82
2022/05/21 02:05:06;;;;;;;12.35;4.50;;;;;;;;;;4998822;28;20096;-80
2022/05/21 02:07:35;;;;;;;14.23;4.20;;;;;;;;;;4988284;28;20043;-80
2022/05/21 02:10:05;;;;;;;12.45;4.18;;;;;;;;;;4998918;28;20037;-80
2022/05/21 02:12:32;;;;;;;14.20;4.07;;;;;;;;;;4981989;28;20562;-80
2022/05/21 02:14:58;;;;;;;14.45;4.15;;;;;;;;;;4996382;28;20372;-80
2022/05/21 02:17:24;;;;;;;15.27;4.30;;;;;;;;;;4988661;28;20057;-81
2022/05/21 02:19:50;;;;;;;14.23;3.78;;;;;;;;;;4999073;28;20052;-82
2022/05/21 02:22:17;;;;;;;13.57;4.32;;;;;;;;;;4987036;28;20046;-80
2022/05/21 02:24:43;;;;;;;12.13;4.00;;;;;;;;;;4995504;28;20049;-81
2022/05/21 02:27:12;;;;;;;12.35;4.25;;;;;;;;;;4993375;28;20501;-79
2022/05/21 02:29:39;;;;;;;15.35;4.25;;;;;;;;;;5001184;28;20508;-81
2022/05/21 02:32:05;;;;;;;16.83;4.30;;;;;;;;;;4994303;28;20053;-79
2022/05/21 02:34:32;;;;;;;12.07;4.68;;;;;;;;;;4984737;28;20051;-80
2022/05/21 02:39:43;;;;;;;17.13;4.30;;;;;;;;;;4992693;28;20136;-79
2022/05/21 02:42:43;;;;;;;13.98;4.40;;;;;;;;;;5001370;28;20512;-80
2022/05/21 02:44:55;;;;;;;14.85;4.85;;;;;;;;;;4992870;28;20148;-79
2022/05/21 02:47:21;;;;;;;16.00;4.13;;;;;;;;;;4999134;28;20225;-81
2022/05/21 02:49:47;;;;;;;16.65;4.45;;;;;;;;;;4992013;28;20061;-80
2022/05/21 02:52:15;;;;;;;10.05;4.45;;;;;;;;;;4988739;28;20041;-80
2022/05/21 02:54:41;;;;;;;15.75;4.68;;;;;;;;;;5001833;28;20474;-80
2022/05/21 02:57:09;;;;;;;13.07;4.60;;;;;;;;;;4997957;28;20041;-80
2022/05/21 02:59:35;;;;;;;12.75;4.13;;;;;;;;;;4981469;28;20129;-79
2022/05/21 03:02:01;;;;;;;14.77;3.90;;;;;;;;;;4986779;28;20128;-79
2022/05/21 03:04:28;;;;;;;18.13;4.32;;;;;;;;;;4995751;28;20133;-79
2022/05/21 03:06:54;;;;;;;10.68;4.07;;;;;;;;;;4976813;28;20081;-80
2022/05/21 03:12:05;;;;;;;12.32;4.25;;;;;;;;;;4983424;28;20043;-79
2022/05/21 03:14:31;;;;;;;14.82;4.43;;;;;;;;;;4992652;28;20410;-80
2022/05/21 03:16:59;;;;;;;13.25;3.83;;;;;;;;;;4984803;28;20039;-81
2022/05/21 03:19:26;;;;;;;13.90;3.85;;;;;;;;;;4985876;28;20488;-80
2022/05/21 03:21:52;;;;;;;9.40;3.80;;;;;;;;;;4980472;28;20447;-79
2022/05/21 03:24:18;;;;;;;14.55;4.32;;;;;;;;;;4997785;28;20050;-79
2022/05/21 03:26:45;;;;;;;14.20;4.20;;;;;;;;;;4975713;28;20200;-80
2022/05/21 03:29:11;;;;;;;10.73;3.72;;;;;;;;;;4994240;28;20041;-80
2022/05/21 03:31:37;;;;;;;14.25;4.13;;;;;;;;;;4986000;28;20065;-80
2022/05/21 03:34:03;;;;;;;12.60;4.15;;;;;;;;;;4998747;28;20072;-80
2022/05/21 03:36:29;;;;;;;13.55;3.97;;;;;;;;;;4991956;28;20429;-80
2022/05/21 03:38:55;;;;;;;11.18;3.35;;;;;;;;;;4997085;28;20048;-80
2022/05/21 03:41:22;;;;;;;11.98;3.70;;;;;;;;;;4985898;28;20577;-78
2022/05/21 03:43:48;;;;;;;11.63;4.22;;;;;;;;;;5001389;28;20498;-80
2022/05/21 03:46:14;;;;;;;12.85;4.20;;;;;;;;;;4996513;28;20053;-80
2022/05/21 03:48:40;;;;;;;11.90;4.22;;;;;;;;;;4989591;28;20080;-79
2022/05/21 03:51:06;;;;;;;12.02;3.70;;;;;;;;;;4987573;28;20074;-79
2022/05/21 03:53:32;;;;;;;17.42;4.53;;;;;;;;;;4988849;28;20069;-80
2022/05/21 03:55:58;;;;;;;11.38;4.10;;;;;;;;;;4990720;28;20049;-79
2022/05/21 03:58:27;;;;;;;14.43;3.97;;;;;;;;;;4991600;28;20742;-81
2022/05/21 04:00:53;;;;;;;13.80;4.10;;;;;;;;;;4992727;28;20078;-80
2022/05/21 04:03:19;;;;;;;11.77;3.80;;;;;;;;;;4994582;28;20080;-80
2022/05/21 04:05:45;;;;;;;13.82;3.95;;;;;;;;;;4992762;28;20045;-80
2022/05/21 04:08:13;;;;;;;12.05;3.80;;;;;;;;;;4986376;28;21365;-80
2022/05/21 04:10:39;;;;;;;14.40;3.95;;;;;;;;;;4989915;28;20650;-80
2022/05/21 04:13:05;;;;;;;13.32;4.05;;;;;;;;;;4984381;28;20085;-80
2022/05/21 04:15:31;;;;;;;14.25;3.85;;;;;;;;;;4976261;28;20054;-80
2022/05/21 04:17:57;;;;;;;12.07;4.32;;;;;;;;;;4987565;28;20053;-81
2022/05/21 04:20:23;;;;;;;11.95;3.80;;;;;;;;;;4989773;28;20448;-80
2022/05/21 04:22:50;;;;;;;15.07;3.65;;;;;;;;;;4996110;28;20129;-80
2022/05/21 04:25:19;;;;;;;13.23;4.40;;;;;;;;;;4988211;28;20502;-80
2022/05/21 04:27:45;;;;;;;13.40;3.70;;;;;;;;;;4996642;28;20054;-80
2022/05/21 04:30:28;;;;;;;11.70;3.58;;;;;;;;;;4988647;28;20053;-80
2022/05/21 04:32:55;;;;;;;10.30;3.60;;;;;;;;;;4995083;28;20058;-80
2022/05/21 04:35:22;;;;;;;14.00;4.50;;;;;;;;;;4990802;28;20133;-79
2022/05/21 04:37:48;;;;;;;11.57;3.42;;;;;;;;;;4994346;28;20049;-80
2022/05/21 04:40:15;;;;;;;13.23;3.53;;;;;;;;;;4995044;28;20987;-80
2022/05/21 04:42:41;;;;;;;16.83;3.90;;;;;;;;;;4995650;28;20090;-79
2022/05/21 04:45:08;;;;;;;8.43;3.17;;;;;;;;;;4984928;28;20047;-81
2022/05/21 04:47:34;;;;;;;14.65;3.95;;;;;;;;;;4994670;28;20046;-80
2022/05/21 04:50:01;;;;;;;12.13;3.75;;;;;;;;;;5000787;28;20087;-80
2022/05/21 04:52:27;;;;;;;12.50;3.97;;;;;;;;;;4988404;28;20452;-80
2022/05/21 04:54:53;;;;;;;12.35;4.28;;;;;;;;;;4993314;28;20045;-81
2022/05/21 04:57:19;;;;;;;15.02;4.25;;;;;;;;;;4985058;28;20065;-82
2022/05/21 04:59:46;;;;;;;11.55;4.13;;;;;;;;;;4999644;28;20077;-80
2022/05/21 05:02:12;;;;;;;11.30;3.67;;;;;;;;;;4996473;28;20113;-79
2022/05/21 05:04:38;;;;;;;9.65;3.50;;;;;;;;;;5004801;28;20042;-80
2022/05/21 05:07:07;;;;;;;10.57;3.80;;;;;;;;;;4989682;28;20097;-81
2022/05/21 05:09:38;;;;;;;12.48;3.70;;;;;;;;;;4997566;28;20126;-81
2022/05/21 05:12:04;;;;;;;9.25;3.88;;;;;;;;;;4993713;28;20085;-80
2022/05/21 05:14:30;;;;;;;12.27;3.60;;;;;;;;;;4989566;28;20074;-79
2022/05/21 05:16:56;;;;;;;10.57;3.45;;;;;;;;;;5002160;28;20077;-81
2022/05/21 05:19:23;;;;;;;13.40;3.67;;;;;;;;;;4988844;28;20568;-80
2022/05/21 05:21:49;;;;;;;9.93;3.80;;;;;;;;;;4990379;28;20566;-80
2022/05/21 05:24:15;;;;;;;11.05;3.30;;;;;;;;;;4990050;28;20516;-80
2022/05/21 05:26:41;;;;;;;10.82;3.53;;;;;;;;;;4997312;28;20054;-81
2022/05/21 05:29:08;;;;;;;10.93;3.50;;;;;;;;;;4995883;28;20050;-80
2022/05/21 05:31:34;;;;;;;9.57;3.45;;;;;;;;;;4999577;28;20240;-80
2022/05/21 05:34:01;;;;;;;11.43;3.72;;;;;;;;;;5004705;28;20128;-80
2022/05/21 05:36:28;;;;;;;11.65;3.58;;;;;;;;;;4999179;28;20207;-79
2022/05/21 05:38:57;;;;;;;12.07;3.70;;;;;;;;;;4991780;28;20066;-80
2022/05/21 05:41:24;;;;;;;11.38;3.50;;;;;;;;;;4993859;28;20047;-79
2022/05/21 05:43:52;;;;;;;8.93;3.60;;;;;;;;;;5003367;28;20040;-80
2022/05/21 05:46:17;;;;;;;8.38;3.22;;;;;;;;;;4993307;28;20073;-80
2022/05/21 05:48:43;;;;;;;12.10;3.47;;;;;;;;;;4989183;28;20558;-80
2022/05/21 05:51:13;;;;;;;15.25;3.85;;;;;;;;;;4995738;28;20041;-81
2022/05/21 05:53:39;;;;;;;10.70;3.95;;;;;;;;;;5012273;28;20458;-80
2022/05/21 05:56:08;;;;;;;10.20;3.47;;;;;;;;;;4982892;28;20145;-79
2022/05/21 06:01:25;;;;;;;15.60;3.92;;;;;;;;;;4982402;28;20050;-80
2022/05/21 06:03:51;;;;;;;14.35;3.88;;;;;;;;;;4997225;28;20128;-80
2022/05/21 06:06:18;;;;;;;16.02;3.65;;;;;;;;;;4994519;28;20444;-79
2022/05/21 06:08:44;;;;;;;12.18;3.70;;;;;;;;;;5002216;28;20042;-80
2022/05/21 06:11:11;;;;;;;11.82;3.88;;;;;;;;;;4984752;28;20042;-79
2022/05/21 06:13:37;;;;;;;12.23;3.65;;;;;;;;;;4987982;28;20039;-81
2022/05/21 06:16:03;;;;;;;11.73;3.67;;;;;;;;;;4992894;28;20038;-80
2022/05/21 06:18:38;;;;;;;13.82;3.97;;;;;;;;;;4992774;28;20411;-80
2022/05/21 06:21:05;;;;;;;14.48;4.30;;;;;;;;;;4993331;28;20046;-79
2022/05/21 06:23:32;;;;;;;15.82;3.78;;;;;;;;;;4997489;28;20598;-80
2022/05/21 06:25:59;;;;;;;10.70;3.42;;;;;;;;;;5004550;28;20410;-79
2022/05/21 06:28:25;;;;;;;13.40;4.20;;;;;;;;;;4988025;28;20077;-80
2022/05/21 06:30:51;;;;;;;14.13;3.92;;;;;;;;;;4990178;28;20516;-80
2022/05/21 06:33:22;;;;;;;17.70;4.53;;;;;;;;;;4991266;28;20117;-79
2022/05/21 06:35:49;;;;;;;12.52;3.72;;;;;;;;;;4993895;28;20049;-81
2022/05/21 06:38:15;;;;;;;9.90;3.67;;;;;;;;;;4996758;28;20054;-80
2022/05/21 06:40:41;;;;;;;11.40;3.80;;;;;;;;;;4992314;28;20046;-81
2022/05/21 06:43:07;;;;;;;13.02;3.85;;;;;;;;;;4990627;28;20152;-80
2022/05/21 06:45:36;;;;;;;10.70;3.78;;;;;;;;;;4981648;28;20077;-81
2022/05/21 06:48:03;;;;;;;11.85;4.15;;;;;;;;;;4998866;28;20053;-81
2022/05/21 06:50:29;;;;;;;13.00;3.50;;;;;;;;;;4991141;28;20046;-80
2022/05/21 06:52:56;;;;;;;11.57;3.78;;;;;;;;;;4995484;28;20058;-81
2022/05/21 06:55:22;;;;;;;16.60;3.90;;;;;;;;;;4994846;28;20044;-80
2022/05/21 06:57:49;;;;;;;9.30;3.55;;;;;;;;;;4994423;28;20068;-79
2022/05/21 07:00:15;;;;;;;12.15;3.72;;;;;;;;;;4994628;28;20074;-80
2022/05/21 07:02:41;;;;;;;10.25;3.85;;;;;;;;;;5001093;28;20077;-79
2022/05/21 07:07:52;;;;;;;14.55;4.10;;;;;;;;;;4987192;28;20054;-80
2022/05/21 07:10:23;;;;;;;11.40;3.67;;;;;;;;;;5003136;28;20409;-80
2022/05/21 07:12:49;;;;;;;13.90;4.00;;;;;;;;;;4997557;28;20038;-80
2022/05/21 07:15:16;;;;;;;11.38;4.00;;;;;;;;;;4987525;28;20050;-80
2022/05/21 07:17:45;;;;;;;15.43;4.22;;;;;;;;;;4998772;28;20043;-81
2022/05/21 07:20:15;;;;;;;10.57;3.70;;;;;;;;;;4985478;28;20441;-79
2022/05/21 07:22:47;;;;;;;14.57;3.88;;;;;;;;;;4975334;28;20043;-80
2022/05/21 07:25:14;;;;;;;12.68;3.67;;;;;;;;;;4984775;28;20123;-80
2022/05/21 07:27:40;;;;;;;10.00;3.30;;;;;;;;;;4990203;28;20051;-80
2022/05/21 07:30:07;;;;;;;11.73;4.03;;;;;;;;;;4989869;28;20108;-80
2022/05/21 07:32:34;;;;;;;9.07;3.80;;;;;;;;;;4978282;28;20122;-81
2022/05/21 07:35:02;;;;;;;13.55;4.18;;;;;;;;;;4977971;28;20510;-80
2022/05/21 07:37:28;;;;;;;12.50;3.67;;;;;;;;;;4982244;28;20038;-81
2022/05/21 07:39:54;;;;;;;14.50;3.50;;;;;;;;;;4996523;28;20042;-80
2022/05/21 07:42:21;;;;;;;16.92;4.45;;;;;;;;;;4999724;28;20042;-80
2022/05/21 07:44:47;;;;;;;12.27;3.33;;;;;;;;;;4993230;28;20548;-78
2022/05/21 07:47:12;;;;;;;9.52;3.63;;;;;;;;;;5004228;28;20045;-80
2022/05/21 07:49:42;;;;;;;12.48;3.75;;;;;;;;;;5001560;28;20045;-79
2022/05/21 07:52:08;;;;;;;8.10;3.55;;;;;;;;;;4974834;28;20050;-80
2022/05/21 07:54:34;;;;;;;15.55;4.43;;;;;;;;;;4993664;28;20137;-81
2022/05/21 07:57:01;;;;;;;11.85;3.53;;;;;;;;;;4978320;28;20051;-79
2022/05/21 07:59:28;;;;;;;13.52;3.97;;;;;;;;;;4988570;28;20045;-81
2022/05/21 08:02:00;;;;;;;13.13;3.75;;;;;;;;;;4990673;28;20053;-82
2022/05/21 08:04:26;;;;;;;10.38;3.70;;;;;;;;;;5001115;28;20049;-81
2022/05/21 08:06:52;;;;;;;10.93;3.88;;;;;;;;;;4988416;28;20048;-81
2022/05/21 08:09:18;;;;;;;11.98;4.05;;;;;;;;;;4983079;28;20406;-79
2022/05/21 08:11:44;;;;;;;13.90;3.80;;;;;;;;;;4998302;28;20045;-81
2022/05/21 08:14:10;;;;;;;10.63;3.63;;;;;;;;;;4983606;28;20041;-80
2022/05/21 08:16:36;;;;;;;11.18;3.50;;;;;;;;;;4992344;28;20089;-81
2022/05/21 08:19:02;;;;;;;11.45;3.95;;;;;;;;;;4984476;28;20045;-82
2022/05/21 08:21:29;;;;;;;11.95;4.15;;;;;;;;;;4984090;28;20055;-80
2022/05/21 08:26:59;;;;;;;13.43;3.72;;;;;;;;;;4997642;28;20064;-81
2022/05/21 08:29:26;;;;;;;13.35;3.80;;;;;;;;;;4987399;28;20066;-79
2022/05/21 08:31:52;;;;;;;13.18;4.07;;;;;;;;;;4985124;28;20037;-80
2022/05/21 08:34:18;;;;;;;9.45;3.63;;;;;;;;;;4986112;28;20443;-78
2022/05/21 08:36:44;;;;;;;10.70;3.53;;;;;;;;;;4970091;28;20061;-80
2022/05/21 08:39:10;;;;;;;10.90;4.05;;;;;;;;;;4977087;28;20122;-81
2022/05/21 08:41:39;;;;;;;12.00;4.22;;;;;;;;;;4974908;28;20077;-80
2022/05/21 08:44:08;;;;;;;13.70;4.00;;;;;;;;;;4980010;28;20126;-82
2022/05/21 08:46:35;;;;;;;9.55;3.47;;;;;;;;;;4991202;28;20042;-81
2022/05/21 08:49:24;;;;;;;12.13;4.00;;;;;;;;;;4971610;28;20047;-81
2022/05/21 08:52:09;;;;;;;14.13;3.85;;;;;;;;;;4970479;28;20070;-81
2022/05/21 08:54:38;;;;;;;11.73;3.88;;;;;;;;;;4993141;28;20156;-80
2022/05/21 08:57:05;;;;;;;13.73;3.97;;;;;;;;;;4986882;28;20510;-83
2022/05/21 08:59:33;;;;;;;10.52;3.47;;;;;;;;;;4986466;28;20138;-82
2022/05/21 09:01:59;;;;;;;9.55;3.42;;;;;;;;;;5005892;28;20042;-81
2022/05/21 09:04:26;;;;;;;12.75;3.85;;;;;;;;;;4985506;28;20057;-81
2022/05/21 09:06:58;;;;;;;14.13;3.58;;;;;;;;;;4975510;28;20133;-82
2022/05/21 09:09:30;;;;;;;9.65;3.60;;;;;;;;;;4984998;28;20130;-81
2022/05/21 09:12:10;;;;;;;10.30;4.00;;;;;;;;;;4971264;28;20042;-82
2022/05/21 09:14:49;;;;;;;15.90;4.53;;;;;;;;;;4970383;28;20101;-81
2022/05/21 09:17:20;;;;;;;17.65;4.60;;;;;;;;;;4970628;28;20134;-81
2022/05/21 09:19:48;;;;;;;12.10;4.43;;;;;;;;;;4971279;28;20149;-81
2022/05/21 09:22:15;;;;;;;13.90;3.80;;;;;;;;;;4970783;28;20050;-80
2022/05/21 09:24:53;;;;;;;15.15;4.63;;;;;;;;;;4973892;28;20086;-81
2022/05/21 09:27:26;;;;;;;14.93;4.28;;;;;;;;;;4972069;28;20086;-81
2022/05/21 09:30:13;;;;;;;12.63;4.28;;;;;;;;;;4974397;28;20065;-82
2022/05/21 09:32:44;;;;;;;15.02;4.55;;;;;;;;;;4973834;28;20060;-83
2022/05/21 09:35:16;;;;;;;10.80;3.90;;;;;;;;;;4977576;28;20055;-82
2022/05/21 09:37:42;;;;;;;16.13;4.05;;;;;;;;;;4975126;28;20074;-82
2022/05/21 09:40:22;;;;;;;12.80;4.30;;;;;;;;;;4974273;28;20047;-80
2022/05/21 09:45:34;;;;;;;16.13;4.32;;;;;;;;;;4973392;28;20106;-82
2022/05/21 09:48:06;;;;;;;13.52;4.20;;;;;;;;;;4974105;28;20460;-81
2022/05/21 09:50:45;;;;;;;13.63;4.00;;;;;;;;;;4973485;28;20035;-83
2022/05/21 09:53:22;;;;;;;12.50;3.97;;;;;;;;;;4975383;28;20047;-81
2022/05/21 09:56:02;;;;;;;12.85;3.80;;;;;;;;;;4973533;28;20082;-82
2022/05/21 09:58:29;;;;;;;14.63;4.43;;;;;;;;;;4974663;28;20051;-81
2022/05/21 10:00:57;;;;;;;11.55;3.72;;;;;;;;;;4973064;28;20086;-83
2022/05/21 10:03:40;;;;;;;17.42;5.18;;;;;;;;;;4989389;28;20050;-82
2022/05/21 10:06:16;;;;;;;16.85;4.63;;;;;;;;;;4993847;28;20049;-81
2022/05/21 10:11:31;;;;;;;15.55;4.57;;;;;;;;;;4974392;28;20050;-81
2022/05/21 10:14:02;;;;;;;14.60;4.70;;;;;;;;;;4975042;28;20514;-81
2022/05/21 10:16:37;;;;;;;11.57;4.30;;;;;;;;;;4973435;28;20035;-81
2022/05/21 10:19:23;;;;;;;12.98;4.47;;;;;;;;;;4988800;28;20141;-81
2022/05/21 10:22:01;;;;;;;13.20;4.18;;;;;;;;;;4993426;28;20466;-81
2022/05/21 10:24:33;;;;;;;13.23;4.45;;;;;;;;;;4979855;28;20102;-80
2022/05/21 10:27:19;;;;;;;13.88;4.28;;;;;;;;;;4982275;28;20060;-79
2022/05/21 10:30:03;;;;;;;18.70;4.55;;;;;;;;;;4983617;28;20138;-81
2022/05/21 10:32:48;;;;;;;14.18;4.40;;;;;;;;;;4977947;28;20046;-76
2022/05/21 10:35:33;;;;;;;10.73;3.85;;;;;;;;;;4984861;28;20054;-75
2022/05/21 10:37:59;;;;;;;10.30;4.07;;;;;;;;;;4992071;28;20403;-80
2022/05/21 10:40:35;;;;;;;12.93;4.32;;;;;;;;;;4988020;28;20050;-80
2022/05/21 10:43:08;;;;;;;15.65;4.03;;;;;;;;;;4991104;28;20161;-80
2022/05/21 10:45:52;;;;;;;11.52;3.83;;;;;;;;;;4993307;28;20718;-80
2022/05/21 10:48:18;;;;;;;16.13;4.32;;;;;;;;;;4989166;28;20828;-80
2022/05/21 10:51:03;;;;;;;13.65;3.92;;;;;;;;;;4984203;28;20451;-80
2022/05/21 10:53:29;;;;;;;11.10;4.32;;;;;;;;;;4991576;28;20099;-81
2022/05/21 10:55:55;;;;;;;12.60;4.15;;;;;;;;;;4991949;28;20138;-81
2022/05/21 10:58:39;;;;;;;12.20;3.90;;;;;;;;;;4975416;28;20118;-81
2022/05/21 11:01:11;;;;;;;10.98;3.75;;;;;;;;;;4973575;28;20479;-81
2022/05/21 11:03:56;;;;;;;9.38;3.63;;;;;;;;;;4982433;28;20043;-80
2022/05/21 11:06:34;;;;;;;12.68;3.90;;;;;;;;;;4973436;28;20126;-80
2022/05/21 11:09:10;;;;;;;13.85;3.67;;;;;;;;;;4973930;28;20558;-80
2022/05/21 11:11:42;;;;;;;11.85;3.55;;;;;;;;;;4972024;28;20047;-80
2022/05/21 11:14:12;;;;;;;10.10;3.58;;;;;;;;;;4973494;28;20491;-80
2022/05/21 11:16:52;;;;;;;10.85;3.50;;;;;;;;;;4972016;28;20078;-80
2022/05/21 11:19:21;;;;;;;10.85;3.55;;;;;;;;;;4973895;28;20046;-80
2022/05/21 11:22:05;;;;;;;12.85;4.00;;;;;;;;;;4974254;28;20491;-80
2022/05/21 11:24:51;;;;;;;12.57;3.58;;;;;;;;;;4972045;28;20047;-80
2022/05/21 11:27:23;;;;;;;13.18;4.22;;;;;;;;;;4970913;28;20050;-80
2022/05/21 11:30:04;;;;;;;15.77;4.10;;;;;;;;;;4983266;28;20050;-80
2022/05/21 11:38:19;;;;;;;16.88;4.15;;;;;;;;;;4973415;28;20050;-80
2022/05/21 11:44:55;;;;;;;12.65;3.97;;;;;;;;;;5004023;28;20502;-79
2022/05/21 11:46:46;;;;;;;11.82;3.97;;;;;;;;;;4972058;28;20533;-79
2022/05/21 11:49:25;;;;;;;14.52;4.18;;;;;;;;;;4972610;28;20078;-79
2022/05/21 11:51:51;;;;;;;12.48;4.45;;;;;;;;;;4973110;28;20042;-79
2022/05/21 11:54:47;;;;;;;14.90;4.47;;;;;;;;;;4970853;28;20093;-79
2022/05/21 11:57:29;;;;;;;11.38;3.75;;;;;;;;;;4971535;28;20551;-79
2022/05/21 11:59:56;;;;;;;17.00;4.57;;;;;;;;;;4973162;28;20134;-80
2022/05/21 12:02:26;;;;;;;11.60;3.53;;;;;;;;;;4972456;28;20051;-80
2022/05/21 12:04:53;;;;;;;13.07;3.88;;;;;;;;;;4984130;28;20077;-80
2022/05/21 12:07:38;;;;;;;18.25;4.63;;;;;;;;;;4971879;28;20131;-79
2022/05/21 12:10:10;;;;;;;11.25;4.03;;;;;;;;;;4973113;28;20054;-82
2022/05/21 12:12:58;;;;;;;14.13;3.90;;;;;;;;;;4971282;28;20138;-81
2022/05/21 12:15:34;;;;;;;14.85;4.40;;;;;;;;;;4972020;28;20669;-80
2022/05/21 12:18:03;;;;;;;14.05;4.35;;;;;;;;;;4971250;28;20069;-81
2022/05/21 12:20:46;;;;;;;12.20;4.10;;;;;;;;;;4980290;28;20051;-80
2022/05/21 12:23:35;;;;;;;13.20;4.13;;;;;;;;;;4972609;28;20070;-80
2022/05/21 12:26:17;;;;;;;13.45;3.75;;;;;;;;;;4971353;28;20450;-80
2022/05/21 12:28:47;;;;;;;10.85;3.78;;;;;;;;;;4971982;28;20058;-81
2022/05/21 12:31:15;;;;;;;11.40;4.35;;;;;;;;;;4971647;28;20050;-80
2022/05/21 12:33:51;;;;;;;12.90;3.90;;;;;;;;;;4971627;28;20050;-80
2022/05/21 12:36:22;;;;;;;15.32;4.15;;;;;;;;;;4981396;28;20050;-80
2022/05/21 12:38:49;;;;;;;12.75;3.90;;;;;;;;;;4990959;28;20058;-80
2022/05/21 12:41:20;;;;;;;13.38;3.80;;;;;;;;;;4991594;28;20505;-80
2022/05/21 12:43:47;;;;;;;9.30;3.50;;;;;;;;;;4976884;28;20389;-80
2022/05/21 12:46:22;;;;;;;13.02;3.60;;;;;;;;;;4971193;28;20051;-81
2022/05/21 12:48:49;;;;;;;11.60;3.55;;;;;;;;;;4972175;28;20792;-80
2022/05/21 12:51:28;;;;;;;12.48;4.03;;;;;;;;;;4969947;28;20101;-80
2022/05/21 12:53:55;;;;;;;11.57;3.88;;;;;;;;;;4972136;28;20055;-80
2022/05/21 12:56:26;;;;;;;11.18;4.03;;;;;;;;;;4985717;28;20052;-80
2022/05/21 12:59:07;;;;;;;9.85;3.40;;;;;;;;;;4992396;28;20490;-80
2022/05/21 13:01:34;;;;;;;11.45;3.30;;;;;;;;;;4978792;28;20520;-80
2022/05/21 13:04:01;;;;;;;11.30;3.80;;;;;;;;;;4981752;28;20050;-80
2022/05/21 13:06:32;;;;;;;11.30;3.53;;;;;;;;;;4992112;28;20054;-80
2022/05/21 13:08:59;;;;;;;10.35;3.85;;;;;;;;;;4993375;28;20104;-80
2022/05/21 13:11:36;;;;;;;9.85;3.40;;;;;;;;;;4973477;28;20137;-81
2022/05/21 13:14:08;;;;;;;12.32;3.70;;;;;;;;;;4975967;28;20495;-81
2022/05/21 13:16:35;;;;;;;11.18;3.80;;;;;;;;;;4973975;28;20102;-81
2022/05/21 13:19:06;;;;;;;13.80;3.88;;;;;;;;;;4975411;28;20050;-83
2022/05/21 13:21:51;;;;;;;8.90;3.42;;;;;;;;;;4976333;28;20043;-81
2022/05/21 13:24:32;;;;;;;10.45;3.30;;;;;;;;;;4974766;28;20487;-80
2022/05/21 13:27:12;;;;;;;14.35;4.13;;;;;;;;;;4983719;28;20522;-79
2022/05/21 13:29:39;;;;;;;9.85;3.13;;;;;;;;;;4974773;28;20137;-81
2022/05/21 13:32:25;;;;;;;13.18;3.38;;;;;;;;;;4985057;28;20529;-80
2022/05/21 13:34:52;;;;;;;10.68;3.33;;;;;;;;;;4992328;28;20552;-80
2022/05/21 13:37:23;;;;;;;10.18;3.63;;;;;;;;;;4993180;28;20089;-80
2022/05/21 13:39:59;;;;;;;9.68;2.95;;;;;;;;;;4994326;28;20053;-81
2022/05/21 13:42:26;;;;;;;9.90;3.42;;;;;;;;;;4983203;28;20058;-80
2022/05/21 13:44:53;;;;;;;11.55;3.28;;;;;;;;;;4975649;28;20047;-80
2022/05/21 13:47:19;;;;;;;5.97;3.00;;;;;;;;;;4974086;28;20134;-81
2022/05/21 13:49:48;;;;;;;10.15;3.47;;;;;;;;;;4974849;28;20137;-81
2022/05/21 13:52:14;;;;;;;11.10;3.75;;;;;;;;;;4973853;28;20058;-80
2022/05/21 13:54:41;;;;;;;9.77;3.75;;;;;;;;;;4973503;28;20419;-80
2022/05/21 13:57:13;;;;;;;9.60;3.85;;;;;;;;;;4973877;28;20526;-80
2022/05/21 14:00:03;;;;;;;11.07;3.47;;;;;;;;;;4975246;28;20043;-80
2022/05/21 14:02:29;;;;;;;10.38;3.35;;;;;;;;;;4974462;28;20050;-80
2022/05/21 14:04:55;;;;;;;9.70;3.40;;;;;;;;;;4977202;28;20050;-80
2022/05/21 14:07:26;;;;;;;11.68;3.38;;;;;;;;;;4974095;28;20057;-79
2022/05/21 14:09:55;;;;;;;9.50;3.35;;;;;;;;;;4974488;28;20092;-80
2022/05/21 14:12:33;;;;;;;12.35;3.75;;;;;;;;;;4973762;28;20050;-80
2022/05/21 14:15:05;;;;;;;9.63;3.67;;;;;;;;;;4974192;28;20376;-80
2022/05/21 14:17:33;;;;;;;9.13;3.47;;;;;;;;;;4973933;28;20070;-80
2022/05/21 14:20:01;;;;;;;12.55;3.95;;;;;;;;;;4973081;28;20058;-80
2022/05/21 14:22:27;;;;;;;10.15;3.25;;;;;;;;;;4977235;28;20030;-80
2022/05/21 14:24:52;;;;;;;12.75;3.70;;;;;;;;;;4994018;28;20129;-80
2022/05/21 14:27:30;;;;;;;9.43;2.67;;;;;;;;;;4994030;28;20555;-80
2022/05/21 14:30:00;;;;;;;8.20;2.83;;;;;;;;;;4978511;28;20074;-80
2022/05/21 14:32:27;;;;;;;8.98;2.78;;;;;;;;;;4974630;28;20038;-80
2022/05/21 14:35:12;;;;;;;10.15;3.15;;;;;;;;;;4973852;28;20035;-80
2022/05/21 14:37:38;;;;;;;8.90;2.80;;;;;;;;;;4972914;28;20477;-80
2022/05/21 14:40:05;;;;;;;5.53;2.58;;;;;;;;;;4976111;28;20050;-79
2022/05/21 14:42:31;;;;;;;7.10;2.70;;;;;;;;;;4991645;28;20046;-80
2022/05/21 14:44:57;;;;;;;6.82;2.50;;;;;;;;;;4992131;28;20114;-80
2022/05/21 14:52:58;;;;;;;8.48;3.05;;;;;;;;;;4974356;28;20050;-80
2022/05/21 14:55:24;;;;;;;9.90;2.80;;;;;;;;;;4972908;28;20049;-81
2022/05/21 14:57:51;;;;;;;8.07;3.55;;;;;;;;;;4972472;28;20491;-81
2022/05/21 15:00:17;;;;;;;6.50;2.60;;;;;;;;;;4974037;28;20051;-80
2022/05/21 15:02:43;;;;;;;9.02;3.00;;;;;;;;;;4971506;28;20422;-81
2022/05/21 15:05:10;;;;;;;6.28;2.20;;;;;;;;;;5001416;28;20108;-80
2022/05/21 15:07:46;;;;;;;4.18;2.15;;;;;;;;;;4996133;28;20054;-80
2022/05/21 15:10:12;;;;;;;8.68;3.13;;;;;;;;;;4992934;28;20053;-80
2022/05/21 15:12:38;;;;;;;5.63;2.75;;;;;;;;;;4985800;28;20122;-80
2022/05/21 15:15:04;;;;;;;5.53;2.50;;;;;;;;;;4973835;28;20046;-80
2022/05/21 15:17:30;;;;;;;8.93;2.65;;;;;;;;;;4972668;28;20047;-80
2022/05/21 15:19:56;;;;;;;6.75;2.40;;;;;;;;;;4973898;28;20526;-80
2022/05/21 15:22:26;;;;;;;6.72;2.38;;;;;;;;;;4973194;28;20055;-80
2022/05/21 15:24:52;;;;;;;7.53;2.40;;;;;;;;;;4971273;28;20129;-80
2022/05/21 15:27:19;;;;;;;7.18;2.92;;;;;;;;;;4971790;28;20073;-81